createdAt,value
2022-09-30T00:00:09.042Z,40.34
2022-09-30T00:01:11.800Z,36.54
2022-09-30T00:02:14.752Z,41.22
2022-09-30T00:03:17.635Z,38.91
2022-09-30T00:04:20.931Z,35.79
2022-09-30T00:05:24.324Z,33.92
2022-09-30T00:06:27.296Z,31.46
2022-09-30T00:07:30.477Z,33.97
2022-09-30T00:08:33.578Z,30.04
2022-09-30T00:09:36.792Z,37.75
2022-09-30T00:10:39.613Z,38.71
2022-09-30T00:11:43.021Z,36.56
2022-09-30T00:12:46.320Z,38.64
2022-09-30T00:13:50.746Z,33.49
2022-09-30T00:14:53.987Z,29.39
2022-09-30T00:15:57.428Z,33.42
2022-09-30T00:17:00.238Z,33.37
2022-09-30T00:18:03.939Z,29.72
2022-09-30T00:19:07.111Z,31.79
2022-09-30T00:20:10.515Z,29.22
2022-09-30T00:21:13.266Z,30.48
2022-09-30T00:22:16.874Z,30.22
2022-09-30T00:23:19.835Z,25.83
2022-09-30T00:24:22.821Z,30.01
2022-09-30T00:25:25.805Z,26.29
2022-09-30T00:26:28.704Z,24.02
2022-09-30T00:27:31.750Z,25.03
2022-09-30T00:28:34.731Z,26.32
2022-09-30T00:29:37.806Z,24.80
2022-09-30T00:30:40.987Z,21.81
2022-09-30T00:31:44.043Z,20.99
2022-09-30T00:32:46.951Z,22.51
2022-09-30T00:33:49.924Z,23.40
2022-09-30T00:34:53.058Z,22.49
2022-09-30T00:35:56.389Z,21.07
2022-09-30T00:36:59.666Z,22.38
2022-09-30T00:38:03.058Z,22.29
2022-09-30T00:39:06.148Z,22.33
2022-09-30T00:40:10.355Z,23.78
2022-09-30T00:41:13.727Z,18.62
2022-09-30T00:42:16.909Z,18.88
2022-09-30T00:43:19.897Z,23.50
2022-09-30T00:44:23.164Z,19.67
2022-09-30T00:45:26.154Z,21.71
2022-09-30T00:46:29.309Z,20.44
2022-09-30T00:48:44.703Z,21.68
2022-09-30T00:49:47.379Z,23.78
2022-09-30T00:50:50.458Z,20.78
2022-09-30T00:51:53.645Z,23.58
2022-09-30T00:52:56.713Z,22.77
2022-09-30T00:54:00.114Z,22.24
2022-09-30T00:55:03.183Z,23.89
2022-09-30T00:56:06.167Z,24.75
2022-09-30T00:57:09.339Z,24.05
2022-09-30T00:58:12.215Z,25.13
2022-09-30T00:59:16.128Z,24.37
2022-09-30T01:01:35.645Z,27.18
2022-09-30T01:02:38.461Z,26.27
2022-09-30T01:03:41.536Z,21.97
2022-09-30T01:04:44.848Z,26.34
2022-09-30T01:05:47.901Z,22.98
2022-09-30T01:06:50.718Z,24.22
2022-09-30T01:07:53.749Z,22.15
2022-09-30T01:08:56.890Z,24.23
2022-09-30T01:09:59.809Z,26.22
2022-09-30T01:11:07.863Z,20.04
2022-09-30T01:12:07.602Z,23.91
2022-09-30T01:13:10.581Z,23.11
2022-09-30T01:14:13.767Z,23.82
2022-09-30T01:15:16.841Z,22.60
2022-09-30T01:16:19.753Z,21.12
2022-09-30T01:17:23.001Z,16.94
2022-09-30T01:18:26.588Z,19.69
2022-09-30T01:19:29.884Z,21.07
2022-09-30T01:20:32.655Z,22.21
2022-09-30T01:21:35.629Z,22.38
2022-09-30T01:22:42.061Z,28.02
2022-09-30T01:23:42.709Z,23.32
2022-09-30T01:24:45.583Z,23.72
2022-09-30T01:25:48.349Z,25.41
2022-09-30T01:26:52.559Z,23.70
2022-09-30T01:27:55.741Z,22.16
2022-09-30T01:28:58.724Z,19.04
2022-09-30T01:30:02.021Z,21.65
2022-09-30T01:31:05.240Z,20.92
2022-09-30T01:32:08.367Z,28.82
2022-09-30T01:33:11.150Z,26.95
2022-09-30T01:34:14.445Z,23.19
2022-09-30T01:36:33.488Z,24.44
2022-09-30T01:37:36.566Z,23.32
2022-09-30T01:39:47.029Z,24.46
2022-09-30T01:40:49.800Z,22.80
2022-09-30T01:41:53.288Z,20.65
2022-09-30T01:42:56.301Z,24.73
2022-09-30T01:43:59.042Z,31.24
2022-09-30T01:45:01.912Z,26.78
2022-09-30T01:46:04.992Z,28.05
2022-09-30T01:47:07.871Z,29.72
2022-09-30T01:48:11.770Z,25.35
2022-09-30T01:49:15.674Z,23.96
2022-09-30T01:50:18.965Z,22.86
2022-09-30T01:51:22.230Z,23.89
2022-09-30T01:52:25.211Z,25.78
2022-09-30T01:53:28.482Z,22.96
2022-09-30T01:54:31.461Z,19.09
2022-09-30T01:55:34.439Z,21.25
2022-09-30T01:56:37.328Z,19.88
2022-09-30T01:57:40.415Z,18.05
2022-09-30T01:58:45.039Z,22.90
2022-09-30T01:59:50.675Z,23.37
2022-09-30T02:00:53.612Z,21.64
2022-09-30T02:01:56.850Z,18.86
2022-09-30T02:03:00.607Z,21.88
2022-09-30T02:04:03.906Z,23.62
2022-09-30T02:05:07.176Z,28.41
2022-09-30T02:06:10.148Z,28.37
2022-09-30T02:07:12.854Z,30.92
2022-09-30T02:08:15.689Z,28.55
2022-09-30T02:09:18.745Z,23.47
2022-09-30T02:10:21.444Z,24.49
2022-09-30T02:11:24.431Z,18.18
2022-09-30T02:12:27.407Z,20.42
2022-09-30T02:13:30.415Z,20.51
2022-09-30T02:14:33.357Z,18.72
2022-09-30T02:15:40.332Z,16.68
2022-09-30T02:19:05.028Z,19.99
2022-09-30T02:20:08.000Z,18.48
2022-09-30T02:23:43.475Z,21.57
2022-09-30T02:24:46.220Z,18.18
2022-09-30T02:26:56.892Z,26.60
2022-09-30T02:28:00.296Z,23.60
2022-09-30T02:29:03.365Z,22.90
2022-09-30T02:30:06.261Z,20.55
2022-09-30T02:31:09.801Z,19.32
2022-09-30T02:32:12.800Z,17.11
2022-09-30T02:33:16.199Z,17.31
2022-09-30T02:34:19.173Z,17.13
2022-09-30T02:35:21.939Z,18.08
2022-09-30T02:36:25.135Z,17.32
2022-09-30T02:37:28.507Z,16.57
2022-09-30T02:38:31.486Z,20.46
2022-09-30T02:39:35.071Z,18.92
2022-09-30T02:40:40.417Z,18.41
2022-09-30T02:41:42.774Z,17.11
2022-09-30T02:42:45.538Z,14.78
2022-09-30T02:43:48.314Z,13.22
2022-09-30T02:44:51.196Z,15.18
2022-09-30T02:45:54.272Z,14.68
2022-09-30T02:46:57.242Z,14.95
2022-09-30T02:47:59.912Z,15.88
2022-09-30T02:49:02.687Z,19.10
2022-09-30T02:50:05.473Z,17.82
2022-09-30T02:51:08.339Z,19.75
2022-09-30T02:52:11.414Z,17.41
2022-09-30T02:53:14.087Z,17.91
2022-09-30T02:54:16.855Z,18.99
2022-09-30T02:55:20.140Z,18.86
2022-09-30T02:56:23.014Z,18.65
2022-09-30T02:57:25.687Z,16.46
2022-09-30T02:58:29.074Z,23.23
2022-09-30T02:59:32.145Z,23.51
2022-09-30T03:00:35.378Z,20.55
2022-09-30T03:01:38.362Z,21.28
2022-09-30T03:02:41.183Z,24.17
2022-09-30T03:03:44.174Z,25.55
2022-09-30T03:04:47.541Z,26.23
2022-09-30T03:05:50.432Z,30.63
2022-09-30T03:06:53.832Z,29.44
2022-09-30T03:07:56.686Z,25.65
2022-09-30T03:09:00.061Z,27.75
2022-09-30T03:10:03.256Z,26.32
2022-09-30T03:11:06.551Z,20.91
2022-09-30T03:12:09.731Z,15.98
2022-09-30T03:13:12.843Z,19.68
2022-09-30T03:14:15.988Z,20.16
2022-09-30T03:15:19.269Z,17.92
2022-09-30T03:16:22.586Z,21.14
2022-09-30T03:17:25.949Z,18.16
2022-09-30T03:18:29.010Z,24.25
2022-09-30T03:19:32.094Z,20.05
2022-09-30T03:20:35.379Z,20.65
2022-09-30T03:21:38.261Z,18.53
2022-09-30T03:22:41.341Z,18.75
2022-09-30T03:23:44.412Z,18.31
2022-09-30T03:24:47.501Z,16.14
2022-09-30T03:25:50.782Z,20.49
2022-09-30T03:26:53.746Z,19.86
2022-09-30T03:27:58.287Z,21.57
2022-09-30T03:29:01.665Z,19.69
2022-09-30T03:30:04.432Z,18.50
2022-09-30T03:31:07.461Z,21.10
2022-09-30T03:32:10.779Z,24.05
2022-09-30T03:33:13.967Z,23.39
2022-09-30T03:34:16.955Z,20.49
2022-09-30T03:35:20.234Z,21.90
2022-09-30T03:36:23.419Z,22.08
2022-09-30T03:37:26.812Z,19.83
2022-09-30T03:38:29.783Z,26.89
2022-09-30T03:39:32.858Z,26.13
2022-09-30T03:40:35.847Z,24.45
2022-09-30T03:41:39.218Z,25.35
2022-09-30T03:42:42.091Z,17.50
2022-09-30T03:43:44.864Z,16.34
2022-09-30T03:44:47.741Z,17.32
2022-09-30T03:45:50.513Z,19.73
2022-09-30T03:46:53.979Z,17.84
2022-09-30T03:47:56.885Z,18.37
2022-09-30T03:48:59.852Z,17.74
2022-09-30T03:50:02.624Z,22.32
2022-09-30T03:51:05.912Z,18.70
2022-09-30T03:52:08.990Z,17.05
2022-09-30T03:53:12.169Z,22.97
2022-09-30T03:54:15.143Z,20.83
2022-09-30T03:55:18.233Z,18.63
2022-09-30T03:56:20.893Z,19.53
2022-09-30T03:57:24.291Z,20.20
2022-09-30T03:58:27.781Z,21.67
2022-09-30T03:59:31.269Z,17.65
2022-09-30T04:00:34.298Z,17.39
2022-09-30T04:01:37.683Z,24.19
2022-09-30T04:02:40.701Z,23.94
2022-09-30T04:03:43.604Z,15.50
2022-09-30T04:04:46.979Z,16.63
2022-09-30T04:05:49.740Z,17.52
2022-09-30T04:06:52.608Z,19.02
2022-09-30T04:07:55.993Z,19.62
2022-09-30T04:08:59.227Z,17.16
2022-09-30T04:10:02.190Z,17.46
2022-09-30T04:11:05.346Z,13.86
2022-09-30T04:12:08.417Z,15.10
2022-09-30T04:13:11.513Z,20.28
2022-09-30T04:14:14.472Z,18.21
2022-09-30T04:15:17.150Z,15.03
2022-09-30T04:16:20.366Z,9.27
2022-09-30T04:17:23.307Z,12.51
2022-09-30T04:18:34.773Z,15.40
2022-09-30T04:19:37.850Z,15.94
2022-09-30T04:20:41.049Z,10.24
2022-09-30T04:21:43.908Z,13.95
2022-09-30T04:22:46.787Z,13.84
2022-09-30T04:23:49.872Z,13.02
2022-09-30T04:24:52.641Z,11.62
2022-09-30T04:25:55.424Z,10.48
2022-09-30T04:26:58.832Z,9.72
2022-09-30T04:28:01.683Z,11.31
2022-09-30T04:29:04.446Z,9.34
2022-09-30T04:30:07.426Z,9.26
2022-09-30T04:31:10.334Z,10.58
2022-09-30T04:32:13.176Z,9.30
2022-09-30T04:33:16.049Z,9.86
2022-09-30T04:34:19.127Z,8.86
2022-09-30T04:35:22.004Z,9.12
2022-09-30T04:36:25.079Z,12.07
2022-09-30T04:37:28.062Z,9.74
2022-09-30T04:38:30.950Z,11.21
2022-09-30T04:39:34.436Z,9.49
2022-09-30T04:40:37.407Z,9.90
2022-09-30T04:41:40.170Z,12.09
2022-09-30T04:42:42.954Z,9.65
2022-09-30T04:43:46.539Z,9.12
2022-09-30T04:44:49.832Z,9.89
2022-09-30T04:45:52.600Z,9.42
2022-09-30T04:46:55.573Z,12.73
2022-09-30T04:47:58.446Z,13.16
2022-09-30T04:49:09.317Z,13.16
2022-09-30T04:50:12.588Z,12.88
2022-09-30T04:51:15.668Z,14.96
2022-09-30T04:52:18.746Z,15.20
2022-09-30T04:53:22.344Z,10.95
2022-09-30T04:54:25.222Z,11.71
2022-09-30T04:55:28.310Z,13.46
2022-09-30T04:56:31.810Z,11.74
2022-09-30T04:57:34.670Z,13.04
2022-09-30T04:58:37.562Z,11.60
2022-09-30T04:59:40.612Z,10.98
2022-09-30T05:00:44.554Z,10.05
2022-09-30T05:01:47.822Z,13.36
2022-09-30T05:02:50.923Z,10.61
2022-09-30T05:03:54.049Z,10.75
2022-09-30T05:04:56.962Z,9.73
2022-09-30T05:05:59.909Z,9.81
2022-09-30T05:07:02.891Z,9.81
2022-09-30T05:08:05.664Z,11.68
2022-09-30T05:09:08.534Z,13.21
2022-09-30T05:10:11.514Z,12.69
2022-09-30T05:11:14.914Z,11.12
2022-09-30T05:12:18.391Z,14.59
2022-09-30T05:13:21.258Z,14.34
2022-09-30T05:14:24.850Z,13.08
2022-09-30T05:15:28.138Z,13.20
2022-09-30T05:16:31.452Z,14.67
2022-09-30T05:17:34.596Z,9.08
2022-09-30T05:18:37.376Z,9.73
2022-09-30T05:19:41.501Z,11.16
2022-09-30T05:20:44.260Z,13.77
2022-09-30T05:21:47.535Z,9.98
2022-09-30T05:22:51.840Z,11.39
2022-09-30T05:23:54.711Z,10.36
2022-09-30T05:24:58.019Z,11.58
2022-09-30T05:26:01.592Z,11.40
2022-09-30T05:27:05.078Z,10.11
2022-09-30T05:28:08.374Z,11.67
2022-09-30T05:29:11.654Z,11.88
2022-09-30T05:30:14.944Z,11.75
2022-09-30T05:31:17.955Z,10.59
2022-09-30T05:32:21.296Z,11.92
2022-09-30T05:33:24.274Z,10.80
2022-09-30T05:34:27.663Z,12.93
2022-09-30T05:35:30.838Z,13.68
2022-09-30T05:36:34.747Z,11.97
2022-09-30T05:37:38.447Z,13.31
2022-09-30T05:38:50.050Z,14.76
2022-09-30T05:39:54.004Z,10.66
2022-09-30T05:40:57.012Z,11.86
2022-09-30T05:41:59.765Z,11.12
2022-09-30T05:43:02.740Z,11.33
2022-09-30T05:44:05.923Z,10.09
2022-09-30T05:45:09.323Z,12.60
2022-09-30T05:46:12.788Z,11.07
2022-09-30T05:47:15.985Z,10.66
2022-09-30T05:48:19.299Z,10.08
2022-09-30T05:49:22.352Z,9.71
2022-09-30T05:50:25.331Z,7.55
2022-09-30T05:51:28.404Z,11.18
2022-09-30T05:52:31.289Z,9.68
2022-09-30T05:53:34.774Z,8.25
2022-09-30T05:54:37.589Z,10.69
2022-09-30T05:55:40.611Z,8.71
2022-09-30T05:56:43.753Z,9.25
2022-09-30T05:57:46.572Z,11.00
2022-09-30T05:58:50.894Z,11.95
2022-09-30T05:59:54.065Z,11.56
2022-09-30T06:00:59.553Z,10.13
2022-09-30T06:02:01.739Z,9.73
2022-09-30T06:03:05.143Z,11.86
2022-09-30T06:04:08.771Z,14.08
2022-09-30T06:05:11.607Z,8.71
2022-09-30T06:06:15.406Z,10.09
2022-09-30T06:07:18.172Z,12.79
2022-09-30T06:08:22.298Z,11.53
2022-09-30T06:09:25.661Z,13.86
2022-09-30T06:10:28.752Z,9.76
2022-09-30T06:11:31.531Z,11.00
2022-09-30T06:12:34.502Z,12.43
2022-09-30T06:13:37.475Z,11.75
2022-09-30T06:14:40.764Z,12.49
2022-09-30T06:15:43.835Z,12.41
2022-09-30T06:16:47.081Z,12.70
2022-09-30T06:17:49.788Z,11.92
2022-09-30T06:18:52.665Z,12.97
2022-09-30T06:19:57.499Z,15.46
2022-09-30T06:21:00.669Z,14.97
2022-09-30T06:22:03.554Z,15.73
2022-09-30T06:23:06.525Z,17.86
2022-09-30T06:24:09.185Z,12.70
2022-09-30T06:25:13.034Z,18.27
2022-09-30T06:26:19.438Z,18.66
2022-09-30T06:27:22.523Z,15.92
2022-09-30T06:28:25.607Z,16.92
2022-09-30T06:29:31.038Z,18.02
2022-09-30T06:30:35.367Z,19.60
2022-09-30T06:31:38.657Z,20.85
2022-09-30T06:32:41.710Z,17.72
2022-09-30T06:33:44.688Z,17.76
2022-09-30T06:34:47.773Z,18.61
2022-09-30T06:35:50.840Z,17.70
2022-09-30T06:36:53.919Z,19.78
2022-09-30T06:37:56.489Z,17.92
2022-09-30T06:38:59.154Z,17.89
2022-09-30T06:40:01.947Z,18.63
2022-09-30T06:41:05.013Z,18.10
2022-09-30T06:42:07.789Z,27.65
2022-09-30T06:43:19.221Z,31.70
2022-09-30T06:44:22.650Z,31.45
2022-09-30T06:45:32.296Z,26.75
2022-09-30T06:46:31.150Z,24.34
2022-09-30T06:47:34.730Z,24.29
2022-09-30T06:48:48.088Z,23.41
2022-09-30T06:49:51.647Z,27.55
2022-09-30T06:51:01.401Z,27.68
2022-09-30T06:51:59.293Z,27.93
2022-09-30T06:53:02.671Z,23.84
2022-09-30T06:54:06.039Z,20.90
2022-09-30T06:55:12.082Z,22.75
2022-09-30T06:56:15.572Z,25.72
2022-09-30T06:57:25.330Z,26.66
2022-09-30T06:58:28.501Z,22.13
2022-09-30T06:59:31.777Z,21.80
2022-09-30T07:00:35.425Z,23.36
2022-09-30T07:01:38.635Z,24.04
2022-09-30T07:02:41.433Z,21.55
2022-09-30T07:03:44.295Z,24.57
2022-09-30T07:04:47.061Z,20.33
2022-09-30T07:05:49.938Z,27.35
2022-09-30T07:06:53.533Z,26.66
2022-09-30T07:07:56.712Z,25.19
2022-09-30T07:08:59.590Z,25.35
2022-09-30T07:10:02.474Z,24.27
2022-09-30T07:11:05.441Z,23.82
2022-09-30T07:12:08.424Z,23.29
2022-09-30T07:13:11.930Z,25.57
2022-09-30T07:14:14.792Z,25.50
2022-09-30T07:15:17.647Z,29.10
2022-09-30T07:16:21.543Z,27.86
2022-09-30T07:17:29.908Z,29.66
2022-09-30T07:18:43.339Z,28.49
2022-09-30T07:19:46.060Z,30.18
2022-09-30T07:20:48.827Z,31.66
2022-09-30T07:21:51.587Z,30.29
2022-09-30T07:22:55.464Z,27.13
2022-09-30T07:23:58.873Z,30.98
2022-09-30T07:25:01.929Z,28.44
2022-09-30T07:26:04.620Z,29.74
2022-09-30T07:27:07.607Z,28.56
2022-09-30T07:28:10.887Z,31.38
2022-09-30T07:29:18.166Z,35.21
2022-09-30T07:30:26.998Z,35.08
2022-09-30T07:31:35.114Z,32.17
2022-09-30T07:32:35.520Z,37.58
2022-09-30T07:33:38.262Z,39.31
2022-09-30T07:34:41.147Z,37.83
2022-09-30T07:35:44.220Z,30.24
2022-09-30T07:36:47.201Z,34.25
2022-09-30T07:37:50.171Z,34.73
2022-09-30T07:38:59.989Z,33.32
2022-09-30T07:40:03.405Z,37.56
2022-09-30T07:41:06.167Z,38.66
2022-09-30T07:42:09.272Z,37.58
2022-09-30T07:43:12.326Z,42.39
2022-09-30T07:44:15.615Z,38.98
2022-09-30T07:45:18.583Z,38.15
2022-09-30T07:46:21.791Z,39.58
2022-09-30T07:47:24.772Z,41.87
2022-09-30T07:48:27.423Z,41.81
2022-09-30T07:49:37.328Z,46.15
2022-09-30T07:50:40.344Z,46.55
2022-09-30T07:51:43.958Z,51.35
2022-09-30T07:52:48.650Z,56.51
2022-09-30T07:53:51.824Z,52.53
2022-09-30T07:54:54.925Z,58.04
2022-09-30T07:55:58.188Z,54.78
2022-09-30T07:57:16.449Z,60.48
2022-09-30T07:58:06.218Z,58.74
2022-09-30T07:59:09.704Z,55.04
2022-09-30T08:00:40.589Z,51.82
2022-09-30T08:01:17.763Z,53.77
2022-09-30T08:02:20.525Z,58.81
2022-09-30T08:03:24.021Z,60.57
2022-09-30T08:04:27.330Z,54.53
2022-09-30T08:05:30.122Z,60.71
2022-09-30T08:06:33.187Z,56.65
2022-09-30T08:07:36.264Z,53.23
2022-09-30T08:08:39.240Z,45.36
2022-09-30T08:09:42.634Z,40.75
2022-09-30T08:10:46.009Z,38.01
2022-09-30T08:11:49.093Z,41.04
2022-09-30T08:12:54.606Z,43.25
2022-09-30T08:13:57.203Z,48.10
2022-09-30T08:14:59.969Z,43.96
2022-09-30T08:16:03.149Z,39.85
2022-09-30T08:17:07.162Z,43.25
2022-09-30T08:18:09.823Z,46.58
2022-09-30T08:19:12.898Z,45.22
2022-09-30T08:20:21.468Z,40.68
2022-09-30T08:21:20.804Z,38.60
2022-09-30T08:22:24.401Z,38.62
2022-09-30T08:23:27.895Z,44.08
2022-09-30T08:24:31.261Z,42.78
2022-09-30T08:25:34.746Z,41.36
2022-09-30T08:26:38.184Z,41.72
2022-09-30T08:27:41.845Z,41.22
2022-09-30T08:28:44.809Z,39.66
2022-09-30T08:29:55.144Z,45.32
2022-09-30T08:30:52.098Z,41.16
2022-09-30T08:31:55.066Z,44.85
2022-09-30T08:32:58.055Z,41.46
2022-09-30T08:34:01.849Z,43.55
2022-09-30T08:35:04.723Z,41.26
2022-09-30T08:36:08.147Z,42.60
2022-09-30T08:37:10.986Z,42.65
2022-09-30T08:38:14.377Z,45.29
2022-09-30T08:39:17.885Z,41.37
2022-09-30T08:40:21.393Z,46.01
2022-09-30T08:41:24.244Z,46.80
2022-09-30T08:42:47.107Z,43.76
2022-09-30T08:43:31.824Z,46.55
2022-09-30T08:44:34.893Z,47.66
2022-09-30T08:45:38.014Z,49.33
2022-09-30T08:46:41.363Z,42.15
2022-09-30T08:47:44.339Z,39.46
2022-09-30T08:48:47.212Z,48.87
2022-09-30T08:49:49.981Z,46.27
2022-09-30T08:50:52.647Z,43.92
2022-09-30T08:51:55.433Z,41.51
2022-09-30T08:52:58.200Z,46.96
2022-09-30T08:54:01.590Z,53.89
2022-09-30T08:55:04.472Z,41.80
2022-09-30T08:56:07.167Z,52.55
2022-09-30T08:57:09.911Z,45.07
2022-09-30T08:58:12.879Z,43.44
2022-09-30T08:59:15.936Z,41.48
2022-09-30T09:00:19.060Z,37.60
2022-09-30T09:01:21.838Z,35.06
2022-09-30T09:02:24.759Z,43.08
2022-09-30T09:03:27.560Z,40.87
2022-09-30T09:04:30.500Z,39.98
2022-09-30T09:05:33.409Z,44.04
2022-09-30T09:06:36.404Z,34.48
2022-09-30T09:07:39.268Z,40.34
2022-09-30T09:08:42.450Z,37.19
2022-09-30T09:09:45.856Z,40.38
2022-09-30T09:10:48.703Z,36.49
2022-09-30T09:11:51.696Z,36.02
2022-09-30T09:12:54.465Z,35.31
2022-09-30T09:13:57.657Z,41.95
2022-09-30T09:15:00.716Z,36.88
2022-09-30T09:16:03.789Z,33.14
2022-09-30T09:17:08.741Z,42.84
2022-09-30T09:18:23.138Z,43.92
2022-09-30T09:19:15.388Z,37.46
2022-09-30T09:20:18.483Z,38.17
2022-09-30T09:21:21.132Z,40.31
2022-09-30T09:22:25.039Z,38.63
2022-09-30T09:23:28.242Z,42.06
2022-09-30T09:24:30.781Z,44.89
2022-09-30T09:25:34.203Z,41.35
2022-09-30T09:26:36.947Z,42.73
2022-09-30T09:27:40.048Z,43.99
2022-09-30T09:28:42.694Z,39.88
2022-09-30T09:29:46.109Z,40.73
2022-09-30T09:30:49.063Z,47.58
2022-09-30T09:31:51.978Z,42.07
2022-09-30T09:32:54.601Z,49.65
2022-09-30T09:33:57.578Z,44.32
2022-09-30T09:35:00.664Z,44.63
2022-09-30T09:36:03.943Z,38.63
2022-09-30T09:37:07.121Z,40.86
2022-09-30T09:38:10.111Z,42.95
2022-09-30T09:39:13.189Z,40.81
2022-09-30T09:40:16.166Z,35.81
2022-09-30T09:41:19.136Z,36.66
2022-09-30T09:42:22.525Z,47.49
2022-09-30T09:43:27.673Z,36.22
2022-09-30T09:44:30.020Z,34.52
2022-09-30T09:45:33.525Z,33.43
2022-09-30T09:46:36.381Z,44.25
2022-09-30T09:47:39.349Z,36.78
2022-09-30T09:48:42.120Z,39.10
2022-09-30T09:49:44.995Z,32.96
2022-09-30T09:50:48.484Z,38.22
2022-09-30T09:51:51.878Z,36.60
2022-09-30T09:52:54.753Z,32.44
2022-09-30T09:53:57.729Z,33.72
2022-09-30T09:55:00.712Z,33.79
2022-09-30T09:56:03.902Z,32.74
2022-09-30T09:57:07.179Z,37.59
2022-09-30T09:58:09.845Z,36.41
2022-09-30T09:59:12.612Z,37.15
2022-09-30T10:00:15.588Z,47.32
2022-09-30T10:01:18.521Z,35.15
2022-09-30T10:02:21.280Z,38.52
2022-09-30T10:03:24.116Z,32.17
2022-09-30T10:04:27.193Z,32.03
2022-09-30T10:05:30.285Z,34.75
2022-09-30T10:06:33.144Z,35.64
2022-09-30T10:07:36.013Z,40.94
2022-09-30T10:08:38.873Z,33.05
2022-09-30T10:09:41.664Z,37.80
2022-09-30T10:10:44.564Z,34.12
2022-09-30T10:11:47.419Z,32.14
2022-09-30T10:12:50.502Z,33.80
2022-09-30T10:13:53.373Z,35.00
2022-09-30T10:14:56.240Z,34.08
2022-09-30T10:15:59.063Z,35.67
2022-09-30T10:17:01.888Z,31.72
2022-09-30T10:18:05.501Z,35.55
2022-09-30T10:19:09.691Z,34.69
2022-09-30T10:20:12.768Z,31.04
2022-09-30T10:21:15.540Z,39.65
2022-09-30T10:22:18.938Z,45.45
2022-09-30T10:23:22.154Z,38.01
2022-09-30T10:24:25.093Z,34.17
2022-09-30T10:25:27.864Z,39.32
2022-09-30T10:26:30.931Z,39.72
2022-09-30T10:27:33.817Z,39.07
2022-09-30T10:28:36.888Z,31.75
2022-09-30T10:29:39.867Z,31.28
2022-09-30T10:30:43.210Z,35.19
2022-09-30T10:31:46.847Z,33.56
2022-09-30T10:32:49.923Z,30.66
2022-09-30T10:33:52.691Z,34.30
2022-09-30T10:34:55.568Z,30.78
2022-09-30T10:35:58.756Z,32.33
2022-09-30T10:37:01.828Z,31.07
2022-09-30T10:38:05.416Z,30.44
2022-09-30T10:39:08.289Z,27.90
2022-09-30T10:40:11.579Z,27.44
2022-09-30T10:41:14.858Z,34.81
2022-09-30T10:42:20.259Z,32.96
2022-09-30T10:43:22.167Z,33.01
2022-09-30T10:44:25.642Z,32.23
2022-09-30T10:45:28.762Z,29.25
2022-09-30T10:46:31.617Z,29.71
2022-09-30T10:47:37.172Z,25.91
2022-09-30T10:48:38.985Z,27.07
2022-09-30T10:49:42.478Z,29.12
2022-09-30T10:50:45.452Z,28.65
2022-09-30T10:51:48.427Z,30.62
2022-09-30T10:52:51.090Z,28.67
2022-09-30T10:53:54.591Z,29.01
2022-09-30T10:54:57.868Z,31.54
2022-09-30T10:56:01.374Z,26.05
2022-09-30T10:57:04.137Z,34.13
2022-09-30T10:58:06.996Z,30.34
2022-09-30T10:59:10.191Z,26.99
2022-09-30T11:00:13.669Z,33.20
2022-09-30T11:01:16.775Z,32.27
2022-09-30T11:03:22.845Z,32.85
2022-09-30T11:04:25.679Z,28.94
2022-09-30T11:05:29.180Z,32.38
2022-09-30T11:06:32.374Z,31.58
2022-09-30T11:07:35.135Z,34.63
2022-09-30T11:08:38.109Z,33.92
2022-09-30T11:09:41.186Z,36.09
2022-09-30T11:10:44.295Z,31.66
2022-09-30T11:11:46.945Z,32.14
2022-09-30T11:12:49.807Z,32.92
2022-09-30T11:13:52.788Z,30.96
2022-09-30T11:14:55.763Z,29.27
2022-09-30T11:15:58.983Z,32.88
2022-09-30T11:17:01.824Z,33.67
2022-09-30T11:18:04.692Z,30.34
2022-09-30T11:19:07.573Z,29.10
2022-09-30T11:20:10.874Z,33.49
2022-09-30T11:21:14.054Z,35.19
2022-09-30T11:22:17.019Z,30.31
2022-09-30T11:23:20.090Z,29.65
2022-09-30T11:24:23.174Z,33.55
2022-09-30T11:25:26.461Z,31.76
2022-09-30T11:26:30.021Z,31.05
2022-09-30T11:27:33.444Z,32.02
2022-09-30T11:28:36.533Z,36.29
2022-09-30T11:29:39.699Z,32.51
2022-09-30T11:30:42.467Z,33.44
2022-09-30T11:31:46.102Z,33.38
2022-09-30T11:32:49.050Z,36.76
2022-09-30T11:33:52.009Z,35.60
2022-09-30T11:34:54.785Z,36.78
2022-09-30T11:35:57.678Z,37.20
2022-09-30T11:37:02.069Z,35.07
2022-09-30T11:38:05.459Z,35.21
2022-09-30T11:39:09.676Z,32.32
2022-09-30T11:40:13.065Z,28.49
2022-09-30T11:41:16.031Z,28.33
2022-09-30T11:42:19.625Z,30.53
2022-09-30T11:43:23.146Z,32.55
2022-09-30T11:44:26.187Z,29.50
2022-09-30T11:45:29.488Z,25.31
2022-09-30T11:46:32.558Z,26.68
2022-09-30T11:47:35.934Z,26.94
2022-09-30T11:48:39.046Z,28.86
2022-09-30T11:49:42.300Z,27.47
2022-09-30T11:50:45.688Z,28.26
2022-09-30T11:51:48.861Z,27.45
2022-09-30T11:52:52.048Z,27.25
2022-09-30T11:53:55.028Z,31.55
2022-09-30T11:54:57.700Z,35.32
2022-09-30T11:56:00.775Z,31.32
2022-09-30T11:57:03.972Z,35.05
2022-09-30T11:58:22.699Z,36.46
2022-09-30T11:59:12.070Z,30.03
2022-09-30T12:00:15.348Z,30.27
2022-09-30T12:01:18.344Z,32.57
2022-09-30T12:02:21.117Z,29.14
2022-09-30T12:03:24.848Z,29.09
2022-09-30T12:04:27.565Z,28.99
2022-09-30T12:05:30.346Z,29.14
2022-09-30T12:06:33.429Z,35.53
2022-09-30T12:07:36.390Z,31.64
2022-09-30T12:08:39.468Z,34.15
2022-09-30T12:09:43.168Z,33.79
2022-09-30T12:10:46.040Z,31.80
2022-09-30T12:11:48.909Z,28.34
2022-09-30T12:12:52.515Z,28.77
2022-09-30T12:13:55.580Z,28.79
2022-09-30T12:14:58.368Z,29.97
2022-09-30T12:16:01.251Z,32.32
2022-09-30T12:17:04.610Z,33.25
2022-09-30T12:18:08.537Z,29.66
2022-09-30T12:19:11.608Z,29.36
2022-09-30T12:20:14.923Z,32.38
2022-09-30T12:21:17.766Z,32.52
2022-09-30T12:22:20.650Z,28.25
2022-09-30T12:23:23.510Z,29.25
2022-09-30T12:24:26.474Z,33.71
2022-09-30T12:25:29.563Z,31.47
2022-09-30T12:26:32.697Z,33.44
2022-09-30T12:27:36.234Z,33.24
2022-09-30T12:28:39.107Z,28.89
2022-09-30T12:29:42.289Z,28.75
2022-09-30T12:30:45.167Z,35.40
2022-09-30T12:31:48.738Z,26.14
2022-09-30T12:32:51.629Z,29.96
2022-09-30T12:33:54.293Z,24.51
2022-09-30T12:34:57.371Z,24.22
2022-09-30T12:36:01.985Z,25.98
2022-09-30T12:37:04.882Z,27.43
2022-09-30T12:38:07.934Z,29.93
2022-09-30T12:39:11.648Z,25.11
2022-09-30T12:40:15.025Z,29.66
2022-09-30T12:41:18.201Z,33.74
2022-09-30T12:42:22.102Z,28.71
2022-09-30T12:43:24.984Z,33.56
2022-09-30T12:44:28.171Z,30.08
2022-09-30T12:45:31.446Z,29.86
2022-09-30T12:46:34.417Z,31.28
2022-09-30T12:47:37.602Z,28.43
2022-09-30T12:48:40.887Z,29.45
2022-09-30T12:49:45.405Z,28.39
2022-09-30T12:50:48.403Z,29.61
2022-09-30T12:51:51.254Z,27.90
2022-09-30T12:52:54.860Z,26.08
2022-09-30T12:53:57.818Z,28.42
2022-09-30T12:55:01.006Z,27.98
2022-09-30T12:56:04.290Z,26.61
2022-09-30T12:57:07.366Z,25.46
2022-09-30T12:58:10.664Z,27.07
2022-09-30T12:59:14.652Z,27.09
2022-09-30T13:00:17.353Z,26.66
2022-09-30T13:01:20.123Z,27.06
2022-09-30T13:02:23.019Z,28.35
2022-09-30T13:03:25.843Z,28.05
2022-09-30T13:04:28.719Z,27.67
2022-09-30T13:05:31.702Z,24.20
2022-09-30T13:06:34.784Z,27.45
2022-09-30T13:07:37.813Z,29.09
2022-09-30T13:08:41.341Z,26.08
2022-09-30T13:09:44.213Z,28.91
2022-09-30T13:10:47.205Z,32.93
2022-09-30T13:11:50.382Z,31.02
2022-09-30T13:12:53.257Z,31.52
2022-09-30T13:13:56.021Z,28.52
2022-09-30T13:14:59.624Z,29.98
2022-09-30T13:16:02.728Z,28.89
2022-09-30T13:17:06.591Z,27.65
2022-09-30T13:18:09.466Z,35.60
2022-09-30T13:19:14.490Z,31.00
2022-09-30T13:20:17.469Z,31.33
2022-09-30T13:21:20.338Z,32.86
2022-09-30T13:22:23.829Z,27.72
2022-09-30T13:23:26.907Z,30.44
2022-09-30T13:24:29.992Z,25.57
2022-09-30T13:25:34.725Z,27.26
2022-09-30T13:26:37.803Z,27.03
2022-09-30T13:27:41.279Z,26.57
2022-09-30T13:28:44.155Z,25.22
2022-09-30T13:29:47.339Z,26.42
2022-09-30T13:30:50.116Z,30.76
2022-09-30T13:31:53.035Z,28.23
2022-09-30T13:32:56.076Z,30.94
2022-09-30T13:33:59.153Z,38.04
2022-09-30T13:35:02.431Z,30.43
2022-09-30T13:36:05.212Z,30.67
2022-09-30T13:37:07.994Z,36.15
2022-09-30T13:38:10.657Z,33.49
2022-09-30T13:39:13.729Z,30.96
2022-09-30T13:40:18.653Z,27.24
2022-09-30T13:41:25.253Z,27.06
2022-09-30T13:42:28.022Z,25.82
2022-09-30T13:43:30.850Z,27.32
2022-09-30T13:44:34.047Z,27.96
2022-09-30T13:45:36.768Z,26.58
2022-09-30T13:46:39.681Z,24.60
2022-09-30T13:47:42.461Z,27.39